Time;durP1;ratioP1;P1;durP2;ratioP2;P2;SDS_P1;SDS_P2;PMS_P1;PMS_P2;Temp;Humidity;BMP_temperature;BMP_pressure;BME280_temperature;BME280_humidity;BME280_pressure;Samples;Min_cycle;Max_cycle;Signal;HPM_P1;HPM_P2
2021/08/05 00:01:32;;;;;;;2.88;1.23;;;;;;;;;;5134360;27;20043;-80
2021/08/05 00:03:58;;;;;;;1.63;0.63;;;;;;;;;;5134195;27;20039;-80
2021/08/05 00:06:25;;;;;;;1.73;0.50;;;;;;;;;;5134289;27;20482;-80
2021/08/05 00:08:53;;;;;;;1.77;0.98;;;;;;;;;;5134272;27;20097;-80
2021/08/05 00:11:20;;;;;;;2.20;1.98;;;;;;;;;;5134167;27;20651;-81
2021/08/05 00:13:46;;;;;;;3.95;1.02;;;;;;;;;;5134306;27;20047;-80
2021/08/05 00:16:13;;;;;;;1.60;1.08;;;;;;;;;;5134065;27;20502;-81
2021/08/05 00:18:39;;;;;;;5.65;1.80;;;;;;;;;;5133979;27;20047;-81
2021/08/05 00:21:06;;;;;;;1.95;1.02;;;;;;;;;;5134158;27;20047;-80
2021/08/05 00:23:32;;;;;;;3.25;1.52;;;;;;;;;;5134113;27;20410;-80
2021/08/05 00:26:00;;;;;;;1.77;0.88;;;;;;;;;;5133984;27;20093;-81
2021/08/05 00:28:27;;;;;;;2.80;1.85;;;;;;;;;;5133924;27;20043;-81
2021/08/05 00:30:54;;;;;;;1.23;0.68;;;;;;;;;;5133591;27;20057;-82
2021/08/05 00:33:20;;;;;;;3.63;1.85;;;;;;;;;;5134054;27;20040;-81
2021/08/05 00:35:47;;;;;;;2.58;1.45;;;;;;;;;;5133771;27;20047;-81
2021/08/05 00:38:13;;;;;;;5.10;1.52;;;;;;;;;;5133823;27;20384;-81
2021/08/05 00:40:41;;;;;;;1.58;1.20;;;;;;;;;;5133707;27;20391;-80
2021/08/05 00:43:09;;;;;;;3.90;1.38;;;;;;;;;;5133564;27;20039;-81
2021/08/05 00:45:35;;;;;;;1.60;1.00;;;;;;;;;;5133385;27;20043;-81
2021/08/05 00:48:02;;;;;;;0.88;0.70;;;;;;;;;;5133339;27;20055;-80
2021/08/05 00:50:28;;;;;;;1.70;1.13;;;;;;;;;;5133275;27;20047;-81
2021/08/05 00:52:55;;;;;;;2.63;1.65;;;;;;;;;;5133471;27;20054;-81
2021/08/05 00:55:21;;;;;;;1.05;0.70;;;;;;;;;;5133421;27;20047;-81
2021/08/05 00:57:48;;;;;;;1.63;0.68;;;;;;;;;;5133336;27;20054;-81
2021/08/05 01:00:16;;;;;;;3.72;1.05;;;;;;;;;;5133054;27;20061;-80
2021/08/05 01:02:44;;;;;;;1.58;1.08;;;;;;;;;;5133123;27;20043;-81
2021/08/05 01:05:11;;;;;;;1.38;0.60;;;;;;;;;;5133523;27;20054;-81
2021/08/05 01:07:40;;;;;;;5.60;1.08;;;;;;;;;;5133119;27;20047;-81
2021/08/05 01:10:08;;;;;;;1.75;1.10;;;;;;;;;;5133034;27;20059;-80
2021/08/05 01:12:37;;;;;;;2.25;1.25;;;;;;;;;;5132826;27;20051;-80
2021/08/05 01:15:06;;;;;;;1.02;0.60;;;;;;;;;;5133122;27;20046;-80
2021/08/05 01:17:36;;;;;;;4.15;0.65;;;;;;;;;;5132856;27;20051;-81
2021/08/05 01:20:03;;;;;;;0.73;0.60;;;;;;;;;;5132941;27;20047;-80
2021/08/05 01:22:31;;;;;;;2.20;0.73;;;;;;;;;;5132916;27;20092;-80
2021/08/05 01:25:04;;;;;;;1.25;0.93;;;;;;;;;;5132673;27;20483;-81
2021/08/05 01:27:32;;;;;;;3.47;1.85;;;;;;;;;;5132553;27;20097;-81
2021/08/05 01:29:59;;;;;;;2.22;1.40;;;;;;;;;;5132741;27;20058;-80
2021/08/05 01:32:26;;;;;;;2.20;1.35;;;;;;;;;;5132508;27;20039;-81
2021/08/05 01:34:53;;;;;;;1.10;0.88;;;;;;;;;;5132631;27;20043;-81
2021/08/05 01:37:20;;;;;;;2.70;0.75;;;;;;;;;;5132899;27;20100;-80
2021/08/05 01:39:47;;;;;;;1.60;0.88;;;;;;;;;;5132360;27;20047;-81
2021/08/05 01:42:13;;;;;;;2.20;1.05;;;;;;;;;;5132399;27;20096;-81
2021/08/05 01:44:45;;;;;;;1.42;0.73;;;;;;;;;;5132346;27;20059;-81
2021/08/05 01:47:13;;;;;;;3.03;2.03;;;;;;;;;;5132257;27;20051;-81
2021/08/05 01:49:40;;;;;;;1.98;1.20;;;;;;;;;;5132310;27;20051;-81
2021/08/05 01:52:07;;;;;;;1.52;1.40;;;;;;;;;;5132304;27;20046;-81
2021/08/05 01:54:34;;;;;;;3.63;1.95;;;;;;;;;;5132112;27;20051;-81
2021/08/05 01:57:00;;;;;;;3.63;1.35;;;;;;;;;;5131686;27;20129;-82
2021/08/05 01:59:27;;;;;;;2.92;1.75;;;;;;;;;;5132227;27;20073;-81
2021/08/05 02:01:55;;;;;;;2.17;0.88;;;;;;;;;;5132156;27;20043;-81
2021/08/05 02:04:27;;;;;;;1.50;0.98;;;;;;;;;;5132238;27;20456;-81
2021/08/05 02:06:56;;;;;;;1.88;1.58;;;;;;;;;;5131852;27;20051;-81
2021/08/05 02:09:25;;;;;;;5.45;0.82;;;;;;;;;;5132297;27;20403;-80
2021/08/05 02:11:54;;;;;;;5.15;2.40;;;;;;;;;;5131941;27;20055;-81
2021/08/05 02:14:21;;;;;;;2.60;0.90;;;;;;;;;;5132107;27;20047;-81
2021/08/05 02:16:48;;;;;;;7.75;1.60;;;;;;;;;;5132257;27;20047;-80
2021/08/05 02:19:16;;;;;;;5.20;1.08;;;;;;;;;;5131761;27;20043;-81
2021/08/05 02:21:44;;;;;;;2.63;0.95;;;;;;;;;;5131661;27;20055;-81
2021/08/05 02:24:11;;;;;;;3.00;1.48;;;;;;;;;;5131897;27;20043;-80
2021/08/05 02:26:38;;;;;;;1.58;1.35;;;;;;;;;;5131714;27;20551;-80
2021/08/05 02:29:05;;;;;;;2.05;1.05;;;;;;;;;;5131845;28;20387;-81
2021/08/05 02:31:31;;;;;;;1.88;1.35;;;;;;;;;;5131804;28;20062;-80
2021/08/05 02:33:59;;;;;;;2.92;1.92;;;;;;;;;;5132076;28;20051;-81
2021/08/05 02:36:27;;;;;;;2.67;1.25;;;;;;;;;;5131817;28;20048;-80
2021/08/05 02:38:53;;;;;;;2.83;1.20;;;;;;;;;;5131957;28;20047;-80
2021/08/05 02:41:20;;;;;;;2.42;1.00;;;;;;;;;;5131474;28;20043;-81
2021/08/05 02:43:47;;;;;;;1.65;1.13;;;;;;;;;;5131578;28;20050;-80
2021/08/05 02:46:14;;;;;;;2.30;1.35;;;;;;;;;;5131613;28;20066;-81
2021/08/05 02:48:41;;;;;;;6.15;1.30;;;;;;;;;;5131371;28;20384;-81
2021/08/05 02:51:08;;;;;;;1.50;1.02;;;;;;;;;;5131480;28;20055;-81
2021/08/05 02:53:36;;;;;;;1.80;0.82;;;;;;;;;;5131605;28;20088;-81
2021/08/05 02:56:03;;;;;;;2.30;1.50;;;;;;;;;;5131459;28;20051;-80
2021/08/05 02:58:30;;;;;;;1.38;1.02;;;;;;;;;;5131625;28;20058;-81
2021/08/05 03:00:56;;;;;;;2.33;1.58;;;;;;;;;;5131366;28;20055;-81
2021/08/05 03:03:23;;;;;;;3.75;2.25;;;;;;;;;;5131362;28;20483;-81
2021/08/05 03:05:50;;;;;;;1.30;1.00;;;;;;;;;;5131617;28;20047;-81
2021/08/05 03:08:17;;;;;;;2.63;1.33;;;;;;;;;;5132906;27;20039;-81
2021/08/05 03:10:45;;;;;;;2.45;1.75;;;;;;;;;;5135361;27;20051;-81
2021/08/05 03:13:12;;;;;;;5.18;1.17;;;;;;;;;;5135361;27;20054;-80
2021/08/05 03:15:38;;;;;;;2.78;1.60;;;;;;;;;;5135132;27;20050;-81
2021/08/05 03:18:05;;;;;;;3.85;1.65;;;;;;;;;;5135319;27;20050;-81
2021/08/05 03:20:31;;;;;;;2.47;0.93;;;;;;;;;;5135285;27;20039;-82
2021/08/05 03:22:59;;;;;;;5.22;2.65;;;;;;;;;;5135246;27;20043;-81
2021/08/05 03:25:26;;;;;;;3.20;1.85;;;;;;;;;;5135210;27;20047;-81
2021/08/05 03:27:54;;;;;;;4.32;2.35;;;;;;;;;;5135026;27;20047;-80
2021/08/05 03:30:21;;;;;;;3.30;1.58;;;;;;;;;;5134806;27;20046;-80
2021/08/05 03:32:47;;;;;;;2.58;1.92;;;;;;;;;;5134877;27;20047;-80
2021/08/05 03:35:14;;;;;;;3.35;1.17;;;;;;;;;;5134969;27;20096;-80
2021/08/05 03:37:40;;;;;;;1.88;1.35;;;;;;;;;;5134851;27;20055;-81
2021/08/05 03:40:07;;;;;;;2.35;1.98;;;;;;;;;;5134771;27;20088;-81
2021/08/05 03:42:34;;;;;;;16.27;1.90;;;;;;;;;;5134727;27;20443;-82
2021/08/05 03:45:01;;;;;;;5.40;2.53;;;;;;;;;;5134741;27;20460;-80
2021/08/05 03:47:28;;;;;;;1.88;1.20;;;;;;;;;;5134921;27;20050;-80
2021/08/05 03:49:54;;;;;;;2.72;1.40;;;;;;;;;;5134556;27;20039;-81
2021/08/05 03:52:21;;;;;;;4.28;1.92;;;;;;;;;;5134567;27;20047;-81
2021/08/05 03:54:47;;;;;;;2.65;2.03;;;;;;;;;;5135006;27;20051;-80
2021/08/05 03:57:14;;;;;;;2.50;1.52;;;;;;;;;;5134321;27;20043;-83
2021/08/05 03:59:40;;;;;;;10.15;1.77;;;;;;;;;;5134655;27;20050;-80
2021/08/05 04:02:08;;;;;;;5.25;2.70;;;;;;;;;;5134292;27;20096;-80
2021/08/05 04:04:35;;;;;;;5.07;2.28;;;;;;;;;;5134351;27;20051;-81
2021/08/05 04:07:01;;;;;;;2.97;1.98;;;;;;;;;;5134460;27;20047;-81
2021/08/05 04:09:28;;;;;;;5.38;2.13;;;;;;;;;;5134337;27;20035;-81
2021/08/05 04:11:54;;;;;;;7.00;4.25;;;;;;;;;;5134001;27;20051;-80
2021/08/05 04:14:21;;;;;;;4.03;2.17;;;;;;;;;;5134147;27;20047;-81
2021/08/05 04:16:47;;;;;;;7.13;3.05;;;;;;;;;;5134339;27;20101;-81
2021/08/05 04:19:15;;;;;;;7.47;4.30;;;;;;;;;;5133817;27;20055;-80
2021/08/05 04:21:42;;;;;;;4.38;3.25;;;;;;;;;;5134057;27;20055;-81
2021/08/05 04:24:08;;;;;;;3.85;3.05;;;;;;;;;;5133933;27;20084;-80
2021/08/05 04:26:35;;;;;;;7.85;2.80;;;;;;;;;;5133768;27;20048;-81
2021/08/05 04:29:01;;;;;;;4.55;2.60;;;;;;;;;;5133778;27;20387;-81
2021/08/05 04:31:28;;;;;;;6.68;2.53;;;;;;;;;;5133864;27;20058;-80
2021/08/05 04:33:54;;;;;;;5.32;2.63;;;;;;;;;;5133723;27;20499;-80
2021/08/05 04:36:22;;;;;;;7.55;3.03;;;;;;;;;;5133937;27;20047;-81
2021/08/05 04:38:49;;;;;;;7.05;2.40;;;;;;;;;;5133773;27;20096;-80
2021/08/05 04:41:15;;;;;;;4.78;2.10;;;;;;;;;;5133870;27;20462;-79
2021/08/05 04:43:43;;;;;;;6.97;2.70;;;;;;;;;;5133548;27;20062;-80
2021/08/05 04:46:09;;;;;;;4.80;2.90;;;;;;;;;;5133769;27;20051;-80
2021/08/05 04:48:36;;;;;;;3.25;2.75;;;;;;;;;;5133397;27;20088;-80
2021/08/05 04:51:02;;;;;;;3.65;1.88;;;;;;;;;;5133303;27;20191;-81
2021/08/05 04:53:30;;;;;;;10.05;5.13;;;;;;;;;;5133284;27;20047;-79
2021/08/05 04:55:57;;;;;;;9.15;5.05;;;;;;;;;;5133554;27;20043;-80
2021/08/05 04:58:23;;;;;;;12.35;4.07;;;;;;;;;;5133409;27;20091;-79
2021/08/05 05:00:50;;;;;;;9.27;3.58;;;;;;;;;;5133213;27;20058;-79
2021/08/05 05:03:17;;;;;;;6.72;3.65;;;;;;;;;;5133264;27;20142;-80
2021/08/05 05:05:43;;;;;;;5.50;2.20;;;;;;;;;;5133201;27;20047;-80
2021/08/05 05:08:14;;;;;;;13.35;4.30;;;;;;;;;;5132941;27;20047;-80
2021/08/05 05:10:42;;;;;;;8.07;3.53;;;;;;;;;;5133181;27;20044;-80
2021/08/05 05:13:08;;;;;;;3.40;2.05;;;;;;;;;;5133206;27;20047;-79
2021/08/05 05:15:35;;;;;;;8.05;3.13;;;;;;;;;;5133047;27;20047;-81
2021/08/05 05:18:01;;;;;;;7.50;3.17;;;;;;;;;;5132910;27;20043;-80
2021/08/05 05:20:28;;;;;;;9.77;3.60;;;;;;;;;;5132833;27;20569;-80
2021/08/05 05:22:55;;;;;;;6.57;3.17;;;;;;;;;;5132658;27;20054;-80
2021/08/05 05:25:21;;;;;;;3.50;2.47;;;;;;;;;;5132674;27;20050;-80
2021/08/05 05:27:49;;;;;;;8.00;2.42;;;;;;;;;;5132794;27;20047;-80
2021/08/05 05:30:16;;;;;;;22.05;3.90;;;;;;;;;;5132238;27;20456;-81
2021/08/05 05:32:44;;;;;;;6.18;3.55;;;;;;;;;;5115726;27;20048;-80
2021/08/05 05:35:11;;;;;;;6.22;3.88;;;;;;;;;;5111901;28;20388;-80
2021/08/05 05:37:38;;;;;;;24.90;4.43;;;;;;;;;;5111978;28;20063;-80
2021/08/05 05:40:05;;;;;;;6.32;4.93;;;;;;;;;;5112033;28;20050;-80
2021/08/05 05:42:33;;;;;;;4.15;2.78;;;;;;;;;;5111786;28;20044;-80
2021/08/05 05:45:01;;;;;;;5.25;3.72;;;;;;;;;;5111956;28;20039;-80
2021/08/05 05:47:28;;;;;;;7.13;3.80;;;;;;;;;;5111780;28;20043;-81
2021/08/05 05:49:54;;;;;;;6.97;3.60;;;;;;;;;;5111673;28;20137;-80
2021/08/05 05:52:21;;;;;;;6.50;4.30;;;;;;;;;;5111924;28;20051;-80
2021/08/05 05:54:47;;;;;;;12.60;5.00;;;;;;;;;;5111903;28;20587;-80
2021/08/05 05:57:14;;;;;;;11.68;4.07;;;;;;;;;;5111763;28;20047;-82
2021/08/05 05:59:41;;;;;;;8.18;3.65;;;;;;;;;;5111701;28;20052;-81
2021/08/05 06:02:09;;;;;;;10.38;4.35;;;;;;;;;;5111515;28;20542;-80
2021/08/05 06:04:35;;;;;;;5.65;2.70;;;;;;;;;;5111415;28;20059;-79
2021/08/05 06:07:02;;;;;;;5.75;3.25;;;;;;;;;;5111421;28;20047;-78
2021/08/05 06:09:29;;;;;;;7.35;3.78;;;;;;;;;;5111630;28;20048;-81
2021/08/05 06:11:55;;;;;;;6.45;3.75;;;;;;;;;;5111498;28;20059;-80
2021/08/05 06:14:22;;;;;;;12.85;4.10;;;;;;;;;;5111482;28;20051;-79
2021/08/05 06:16:48;;;;;;;9.32;3.25;;;;;;;;;;5111379;28;20093;-80
2021/08/05 06:19:16;;;;;;;12.57;3.95;;;;;;;;;;5111334;28;20104;-79
2021/08/05 06:21:43;;;;;;;5.75;4.35;;;;;;;;;;5111234;28;20047;-79
2021/08/05 06:24:12;;;;;;;4.63;3.50;;;;;;;;;;5111214;28;20048;-81
2021/08/05 06:26:39;;;;;;;7.63;4.63;;;;;;;;;;5123148;27;20413;-80
2021/08/05 06:29:05;;;;;;;4.75;3.17;;;;;;;;;;5131025;27;20047;-79
2021/08/05 06:31:34;;;;;;;6.85;3.45;;;;;;;;;;5130855;28;20050;-78
2021/08/05 06:34:00;;;;;;;5.90;4.40;;;;;;;;;;5131118;28;20067;-81
2021/08/05 06:36:28;;;;;;;7.45;3.17;;;;;;;;;;5130856;28;20043;-82
2021/08/05 06:38:55;;;;;;;4.80;4.03;;;;;;;;;;5131332;28;20050;-79
2021/08/05 06:41:21;;;;;;;10.30;4.88;;;;;;;;;;5131130;28;20047;-79
2021/08/05 06:43:48;;;;;;;8.45;3.22;;;;;;;;;;5135118;27;20047;-78
2021/08/05 06:46:14;;;;;;;5.32;3.25;;;;;;;;;;5135425;27;20100;-81
2021/08/05 06:48:41;;;;;;;10.80;3.47;;;;;;;;;;5129643;27;20051;-79
2021/08/05 06:51:10;;;;;;;7.80;3.85;;;;;;;;;;5131354;27;20047;-80
2021/08/05 06:53:38;;;;;;;5.55;3.10;;;;;;;;;;5135643;27;20051;-80
2021/08/05 06:56:04;;;;;;;7.05;4.03;;;;;;;;;;5135690;27;20042;-81
2021/08/05 06:58:31;;;;;;;6.65;3.38;;;;;;;;;;5135541;27;20078;-81
2021/08/05 07:00:59;;;;;;;6.15;4.28;;;;;;;;;;5135816;27;20051;-79
2021/08/05 07:03:25;;;;;;;9.48;4.20;;;;;;;;;;5135684;27;20403;-78
2021/08/05 07:05:52;;;;;;;4.72;3.60;;;;;;;;;;5135424;27;20513;-82
2021/08/05 07:08:19;;;;;;;5.95;3.92;;;;;;;;;;5135375;27;20047;-79
2021/08/05 07:10:46;;;;;;;4.75;3.42;;;;;;;;;;5135212;27;20100;-80
2021/08/05 07:13:13;;;;;;;4.45;2.63;;;;;;;;;;5135134;27;20096;-80
2021/08/05 07:15:39;;;;;;;12.45;2.95;;;;;;;;;;5135515;27;20043;-81
2021/08/05 07:18:06;;;;;;;4.88;3.45;;;;;;;;;;5135471;27;20069;-80
2021/08/05 07:20:32;;;;;;;4.60;2.28;;;;;;;;;;5135401;27;20418;-79
2021/08/05 07:22:59;;;;;;;7.18;3.58;;;;;;;;;;5135262;27;20088;-79
2021/08/05 07:25:25;;;;;;;3.92;2.10;;;;;;;;;;5135574;27;20058;-80
2021/08/05 07:27:53;;;;;;;4.47;2.83;;;;;;;;;;5134826;27;20047;-80
2021/08/05 07:30:20;;;;;;;4.68;2.38;;;;;;;;;;5135225;27;20111;-81
2021/08/05 07:32:49;;;;;;;4.47;3.17;;;;;;;;;;5134879;27;20577;-79
2021/08/05 07:35:16;;;;;;;3.85;2.80;;;;;;;;;;5134789;27;20138;-80
2021/08/05 07:37:42;;;;;;;10.48;3.30;;;;;;;;;;5134935;27;20047;-81
2021/08/05 07:40:09;;;;;;;9.93;4.20;;;;;;;;;;5134705;27;20047;-80
2021/08/05 07:42:36;;;;;;;21.80;3.67;;;;;;;;;;5134924;27;20055;-82
2021/08/05 07:45:04;;;;;;;4.18;2.08;;;;;;;;;;5134359;27;20055;-83
2021/08/05 07:47:30;;;;;;;7.22;3.13;;;;;;;;;;5134538;27;20529;-79
2021/08/05 07:49:57;;;;;;;5.38;3.72;;;;;;;;;;5134600;27;20050;-81
2021/08/05 07:52:23;;;;;;;6.05;1.92;;;;;;;;;;5134602;27;20054;-79
2021/08/05 07:54:50;;;;;;;7.65;2.67;;;;;;;;;;5133656;27;20044;-80
2021/08/05 07:57:17;;;;;;;4.47;2.47;;;;;;;;;;5134683;27;20043;-80
2021/08/05 07:59:45;;;;;;;5.07;1.67;;;;;;;;;;5134713;27;20046;-79
2021/08/05 08:02:13;;;;;;;8.05;2.75;;;;;;;;;;5134419;27;20039;-79
2021/08/05 08:04:40;;;;;;;7.18;3.28;;;;;;;;;;5134263;27;20039;-78
2021/08/05 08:07:06;;;;;;;5.95;3.17;;;;;;;;;;5134073;27;20091;-79
2021/08/05 08:09:33;;;;;;;6.53;3.55;;;;;;;;;;5133395;27;20045;-80
2021/08/05 08:12:00;;;;;;;6.20;3.00;;;;;;;;;;5133534;27;20127;-79
2021/08/05 08:14:26;;;;;;;6.53;3.60;;;;;;;;;;5144839;27;20088;-80
2021/08/05 08:16:53;;;;;;;8.02;3.53;;;;;;;;;;5133833;27;20061;-79
2021/08/05 08:19:21;;;;;;;7.00;4.57;;;;;;;;;;5134007;27;20039;-79
2021/08/05 08:21:47;;;;;;;9.75;4.07;;;;;;;;;;5136545;27;20043;-81
2021/08/05 08:24:14;;;;;;;8.63;4.03;;;;;;;;;;5138814;27;20039;-79
2021/08/05 08:26:40;;;;;;;6.07;3.53;;;;;;;;;;5133878;27;20059;-79
2021/08/05 08:29:08;;;;;;;14.40;3.50;;;;;;;;;;5133672;27;20387;-78
2021/08/05 08:31:34;;;;;;;8.48;3.92;;;;;;;;;;5133332;27;20043;-81
2021/08/05 08:34:01;;;;;;;4.63;3.00;;;;;;;;;;5133267;27;20112;-79
2021/08/05 08:36:29;;;;;;;6.03;3.47;;;;;;;;;;5132951;27;20088;-80
2021/08/05 08:38:58;;;;;;;6.72;4.75;;;;;;;;;;5133719;27;20536;-84
2021/08/05 08:41:25;;;;;;;5.43;3.70;;;;;;;;;;5133777;27;20130;-86
2021/08/05 08:43:52;;;;;;;16.60;5.22;;;;;;;;;;5133630;27;20047;-79
2021/08/05 08:46:20;;;;;;;14.85;5.50;;;;;;;;;;5133578;27;20054;-79
2021/08/05 08:48:48;;;;;;;12.57;5.22;;;;;;;;;;5133455;27;20509;-79
2021/08/05 08:51:15;;;;;;;9.23;5.35;;;;;;;;;;5133701;27;20050;-77
2021/08/05 08:53:44;;;;;;;7.45;4.90;;;;;;;;;;5133632;27;20051;-78
2021/08/05 08:56:11;;;;;;;7.85;4.35;;;;;;;;;;5132615;27;20046;-80
2021/08/05 08:58:38;;;;;;;11.75;5.57;;;;;;;;;;5133305;27;20058;-78
2021/08/05 09:01:05;;;;;;;12.65;5.65;;;;;;;;;;5131270;27;20050;-82
2021/08/05 09:03:31;;;;;;;9.32;5.65;;;;;;;;;;5132962;27;20051;-77
2021/08/05 09:05:58;;;;;;;9.10;6.13;;;;;;;;;;5132135;27;20039;-79
2021/08/05 09:08:24;;;;;;;12.35;6.68;;;;;;;;;;5112739;28;20098;-77
2021/08/05 09:10:55;;;;;;;8.60;5.03;;;;;;;;;;5112635;28;20051;-77
2021/08/05 09:13:22;;;;;;;6.47;4.57;;;;;;;;;;5118447;27;20047;-83
2021/08/05 09:15:48;;;;;;;6.72;4.28;;;;;;;;;;5123141;27;20063;-82
2021/08/05 09:18:28;;;;;;;8.18;5.65;;;;;;;;;;5118424;27;20462;-82
2021/08/05 09:21:09;;;;;;;11.05;6.05;;;;;;;;;;5119655;27;20487;-79
2021/08/05 09:23:55;;;;;;;8.70;5.35;;;;;;;;;;5119191;27;20055;-78
2021/08/05 09:26:24;;;;;;;9.13;5.25;;;;;;;;;;5124493;27;20040;-78
2021/08/05 09:29:00;;;;;;;8.98;4.78;;;;;;;;;;5121407;27;20051;-77
2021/08/05 09:31:27;;;;;;;14.25;5.10;;;;;;;;;;5123930;27;20490;-79
2021/08/05 09:33:59;;;;;;;9.50;4.50;;;;;;;;;;5124467;27;20054;-78
2021/08/05 09:36:27;;;;;;;10.82;5.63;;;;;;;;;;5131331;27;20047;-77
2021/08/05 09:38:54;;;;;;;9.38;5.13;;;;;;;;;;5120136;27;20061;-81
2021/08/05 09:41:21;;;;;;;7.28;4.20;;;;;;;;;;5130582;27;20051;-78
2021/08/05 09:43:49;;;;;;;14.05;5.03;;;;;;;;;;5132418;27;20047;-78
2021/08/05 09:46:29;;;;;;;9.05;4.85;;;;;;;;;;5132435;27;20058;-80
2021/08/05 09:48:55;;;;;;;13.82;5.70;;;;;;;;;;5132304;27;20399;-79
2021/08/05 09:51:22;;;;;;;6.00;3.80;;;;;;;;;;5132182;27;20043;-78
2021/08/05 09:53:55;;;;;;;5.82;3.17;;;;;;;;;;5132180;27;20466;-79
2021/08/05 09:56:22;;;;;;;8.77;4.00;;;;;;;;;;5132233;27;20047;-84
2021/08/05 09:58:50;;;;;;;8.95;4.97;;;;;;;;;;5132030;27;20068;-80
2021/08/05 10:01:17;;;;;;;6.88;4.47;;;;;;;;;;5132079;27;20051;-79
2021/08/05 10:03:43;;;;;;;7.85;4.30;;;;;;;;;;5132137;27;20043;-78
2021/08/05 10:06:10;;;;;;;8.02;4.90;;;;;;;;;;5131916;27;20059;-77
2021/08/05 10:08:37;;;;;;;5.97;4.35;;;;;;;;;;5130019;27;20050;-82
2021/08/05 10:11:04;;;;;;;7.15;5.30;;;;;;;;;;5132488;27;20051;-79
2021/08/05 10:13:34;;;;;;;9.68;4.85;;;;;;;;;;5131962;27;20047;-79
2021/08/05 10:16:02;;;;;;;8.18;4.80;;;;;;;;;;5132301;27;20151;-80
2021/08/05 10:18:29;;;;;;;11.88;5.53;;;;;;;;;;5131418;27;20051;-79
2021/08/05 10:20:56;;;;;;;9.73;5.65;;;;;;;;;;5131773;27;20043;-78
2021/08/05 10:23:23;;;;;;;5.97;3.95;;;;;;;;;;5132001;27;20047;-78
2021/08/05 10:25:50;;;;;;;11.93;5.97;;;;;;;;;;5131801;27;20047;-79
2021/08/05 10:28:17;;;;;;;6.30;3.72;;;;;;;;;;5131737;27;20487;-78
2021/08/05 10:30:44;;;;;;;7.75;4.18;;;;;;;;;;5131872;27;20047;-79
2021/08/05 10:33:13;;;;;;;8.55;4.78;;;;;;;;;;5131573;28;20062;-80
2021/08/05 10:35:40;;;;;;;6.72;4.75;;;;;;;;;;5131776;28;20070;-81
2021/08/05 10:38:07;;;;;;;7.57;4.40;;;;;;;;;;5131622;28;20414;-79
2021/08/05 10:40:34;;;;;;;4.43;2.28;;;;;;;;;;5131795;28;20065;-82
2021/08/05 10:43:01;;;;;;;5.15;3.05;;;;;;;;;;5131957;28;20055;-79
2021/08/05 10:45:27;;;;;;;9.38;3.47;;;;;;;;;;5128682;28;20052;-78
2021/08/05 10:47:55;;;;;;;6.47;3.55;;;;;;;;;;5111068;28;20055;-82
2021/08/05 10:50:24;;;;;;;4.90;3.15;;;;;;;;;;5110993;28;20047;-80
2021/08/05 10:52:51;;;;;;;6.57;2.80;;;;;;;;;;5111272;28;20163;-78
2021/08/05 10:55:31;;;;;;;6.38;2.78;;;;;;;;;;5120767;27;20039;-78
2021/08/05 10:58:08;;;;;;;3.35;2.42;;;;;;;;;;5111146;28;20039;-79
2021/08/05 11:00:52;;;;;;;6.18;2.35;;;;;;;;;;5109180;28;20527;-79
2021/08/05 11:03:34;;;;;;;2.95;1.85;;;;;;;;;;5109321;28;20044;-83
2021/08/05 11:06:02;;;;;;;4.32;2.03;;;;;;;;;;5110285;28;20462;-78
2021/08/05 11:08:29;;;;;;;7.95;2.45;;;;;;;;;;5110914;28;20066;-78
2021/08/05 11:11:14;;;;;;;5.95;2.05;;;;;;;;;;5110846;28;20048;-82
2021/08/05 11:13:40;;;;;;;3.38;2.42;;;;;;;;;;5110942;28;20048;-79
2021/08/05 11:16:07;;;;;;;3.60;2.13;;;;;;;;;;5110783;28;20051;-79
2021/08/05 11:18:33;;;;;;;2.65;1.17;;;;;;;;;;5111154;28;20047;-79
2021/08/05 11:21:18;;;;;;;3.65;1.75;;;;;;;;;;5110920;28;20495;-80
2021/08/05 11:23:46;;;;;;;10.13;3.70;;;;;;;;;;5096819;28;20054;-79
2021/08/05 11:26:12;;;;;;;5.90;2.80;;;;;;;;;;5110631;28;20096;-82
2021/08/05 11:28:46;;;;;;;3.38;2.22;;;;;;;;;;5110935;28;20048;-79
2021/08/05 11:31:25;;;;;;;3.15;2.15;;;;;;;;;;5114514;28;20044;-77
2021/08/05 11:33:52;;;;;;;4.10;1.48;;;;;;;;;;5114336;28;20058;-82
2021/08/05 11:36:24;;;;;;;4.25;1.45;;;;;;;;;;5114455;28;20122;-78
2021/08/05 11:38:59;;;;;;;7.25;2.38;;;;;;;;;;5114365;28;20047;-78
2021/08/05 11:41:42;;;;;;;8.05;2.40;;;;;;;;;;5114351;28;20080;-79
2021/08/05 11:44:19;;;;;;;8.10;1.55;;;;;;;;;;5114093;28;20051;-79
2021/08/05 11:46:47;;;;;;;15.38;1.50;;;;;;;;;;5114460;28;20047;-78
2021/08/05 11:49:28;;;;;;;4.25;1.80;;;;;;;;;;5114358;28;20098;-80
2021/08/05 11:51:56;;;;;;;6.82;2.63;;;;;;;;;;5114021;28;20108;-80
2021/08/05 11:54:24;;;;;;;2.08;1.25;;;;;;;;;;5113920;28;20088;-91
2021/08/05 11:56:58;;;;;;;3.75;1.90;;;;;;;;;;5114305;28;20055;-78
2021/08/05 11:59:37;;;;;;;3.00;1.63;;;;;;;;;;5113997;28;20055;-79
2021/08/05 12:02:05;;;;;;;4.47;1.45;;;;;;;;;;5113771;28;20483;-79
2021/08/05 12:04:32;;;;;;;3.17;1.35;;;;;;;;;;5113900;28;20395;-79
2021/08/05 12:07:17;;;;;;;1.83;0.95;;;;;;;;;;5113799;28;20082;-79
2021/08/05 12:09:48;;;;;;;3.22;0.88;;;;;;;;;;5114019;28;20105;-79
2021/08/05 12:12:15;;;;;;;8.20;2.50;;;;;;;;;;5113722;28;20487;-81
2021/08/05 12:14:46;;;;;;;6.10;1.70;;;;;;;;;;5113471;28;20059;-80
2021/08/05 12:17:12;;;;;;;4.78;1.98;;;;;;;;;;5113504;28;20055;-81
2021/08/05 12:19:47;;;;;;;2.65;1.65;;;;;;;;;;5113919;27;20050;-79
2021/08/05 12:22:15;;;;;;;6.07;2.60;;;;;;;;;;5113745;28;20108;-80
2021/08/05 12:24:43;;;;;;;3.78;1.52;;;;;;;;;;5113628;28;20130;-78
2021/08/05 12:27:15;;;;;;;3.17;1.33;;;;;;;;;;5113916;28;20063;-79
2021/08/05 12:29:42;;;;;;;13.30;2.83;;;;;;;;;;5113441;28;20077;-78
2021/08/05 12:32:09;;;;;;;4.15;1.92;;;;;;;;;;5113477;28;20130;-79
2021/08/05 12:34:36;;;;;;;3.03;1.65;;;;;;;;;;5113299;28;20078;-78
2021/08/05 12:37:12;;;;;;;2.90;1.67;;;;;;;;;;5113129;28;20056;-80
2021/08/05 12:39:39;;;;;;;4.95;2.05;;;;;;;;;;5113131;28;20082;-85
2021/08/05 12:42:06;;;;;;;4.00;1.35;;;;;;;;;;5113230;28;20048;-78
2021/08/05 12:44:34;;;;;;;3.35;1.23;;;;;;;;;;5112977;28;20048;-79
2021/08/05 12:47:03;;;;;;;3.17;1.17;;;;;;;;;;5113158;28;20047;-78
2021/08/05 12:49:30;;;;;;;5.28;2.35;;;;;;;;;;5113110;28;20051;-79
2021/08/05 12:51:57;;;;;;;5.82;2.13;;;;;;;;;;5112927;28;20556;-83
2021/08/05 12:54:24;;;;;;;2.15;1.35;;;;;;;;;;5112803;28;20109;-79
2021/08/05 12:56:51;;;;;;;2.97;1.55;;;;;;;;;;5112662;28;20054;-87
2021/08/05 12:59:19;;;;;;;5.10;2.63;;;;;;;;;;5112965;28;20047;-79
2021/08/05 13:02:02;;;;;;;2.85;0.93;;;;;;;;;;5114899;27;20039;-84
2021/08/05 13:04:31;;;;;;;2.95;1.45;;;;;;;;;;5124290;27;20050;-78
2021/08/05 13:06:58;;;;;;;3.78;2.10;;;;;;;;;;5133275;27;20139;-79
2021/08/05 13:09:25;;;;;;;3.03;1.70;;;;;;;;;;5132916;27;20463;-78
2021/08/05 13:11:52;;;;;;;5.72;1.15;;;;;;;;;;5133134;27;20514;-77
2021/08/05 13:14:29;;;;;;;2.97;1.23;;;;;;;;;;5132879;27;20063;-81
2021/08/05 13:17:07;;;;;;;3.45;1.08;;;;;;;;;;5118300;27;20043;-79
2021/08/05 13:19:50;;;;;;;5.15;1.60;;;;;;;;;;5113904;27;20488;-78
2021/08/05 13:22:17;;;;;;;6.25;2.03;;;;;;;;;;5132976;27;20043;-78
2021/08/05 13:24:56;;;;;;;2.25;1.35;;;;;;;;;;5132950;27;20129;-79
2021/08/05 13:27:23;;;;;;;2.17;1.10;;;;;;;;;;5132355;27;20058;-77
2021/08/05 13:29:52;;;;;;;2.28;1.45;;;;;;;;;;5132778;27;20050;-78
2021/08/05 13:32:20;;;;;;;7.13;1.85;;;;;;;;;;5132468;27;20096;-77
2021/08/05 13:35:05;;;;;;;6.68;2.17;;;;;;;;;;5132755;27;20116;-78
2021/08/05 13:37:33;;;;;;;3.25;1.30;;;;;;;;;;5132668;27;20055;-78
2021/08/05 13:40:00;;;;;;;3.03;1.30;;;;;;;;;;5132581;27;20047;-77
2021/08/05 13:42:27;;;;;;;5.43;2.42;;;;;;;;;;5132515;27;20460;-79
2021/08/05 13:44:54;;;;;;;6.03;1.58;;;;;;;;;;5132386;27;20063;-77
2021/08/05 13:47:22;;;;;;;4.97;1.30;;;;;;;;;;5132741;27;20051;-80
2021/08/05 13:49:49;;;;;;;4.43;2.13;;;;;;;;;;5132545;27;20104;-77
2021/08/05 13:52:16;;;;;;;5.20;2.20;;;;;;;;;;5131876;27;20044;-79
2021/08/05 13:54:42;;;;;;;10.40;2.20;;;;;;;;;;5132261;27;20054;-78
2021/08/05 13:57:09;;;;;;;2.47;1.40;;;;;;;;;;5120979;27;20050;-77
2021/08/05 13:59:36;;;;;;;12.15;3.13;;;;;;;;;;5111564;28;20102;-81
2021/08/05 14:02:03;;;;;;;9.80;1.75;;;;;;;;;;5111900;28;20093;-76
2021/08/05 14:04:31;;;;;;;2.67;1.75;;;;;;;;;;5111664;28;20093;-79
2021/08/05 14:06:58;;;;;;;2.97;1.77;;;;;;;;;;5111686;28;20039;-78
2021/08/05 14:09:24;;;;;;;6.50;2.28;;;;;;;;;;5111552;28;20055;-78
2021/08/05 14:11:51;;;;;;;3.97;2.33;;;;;;;;;;5111287;28;20052;-80
2021/08/05 14:14:18;;;;;;;2.60;1.88;;;;;;;;;;5111337;28;20047;-78
2021/08/05 14:16:45;;;;;;;3.63;1.85;;;;;;;;;;5111534;28;20051;-82
2021/08/05 14:19:12;;;;;;;9.95;3.47;;;;;;;;;;5111451;28;20087;-78
2021/08/05 14:21:41;;;;;;;5.32;2.92;;;;;;;;;;5111439;28;20048;-78
2021/08/05 14:24:08;;;;;;;5.88;3.22;;;;;;;;;;5115338;27;20043;-77
2021/08/05 14:26:34;;;;;;;9.52;3.53;;;;;;;;;;5113221;27;20043;-77
2021/08/05 14:29:01;;;;;;;4.78;2.63;;;;;;;;;;5111492;28;20047;-78
2021/08/05 14:31:27;;;;;;;10.55;3.75;;;;;;;;;;5111227;28;20502;-79
2021/08/05 14:33:54;;;;;;;3.85;2.45;;;;;;;;;;5111061;28;20483;-77
2021/08/05 14:36:20;;;;;;;3.85;2.47;;;;;;;;;;5111298;28;20092;-81
2021/08/05 14:38:48;;;;;;;7.55;3.03;;;;;;;;;;5115705;28;20050;-78
2021/08/05 14:41:15;;;;;;;22.90;3.78;;;;;;;;;;5130705;28;20498;-78
2021/08/05 14:43:42;;;;;;;3.85;2.13;;;;;;;;;;5131677;28;20051;-79
2021/08/05 14:46:08;;;;;;;11.18;4.32;;;;;;;;;;5117666;28;20097;-78